sensor_id;sensor_type;location;lat;lon;timestamp;pressure;altitude;pressure_sealevel;temperature;humidity
48364;BME280;34170;54.364;18.582;2023-01-29T00:00:06;100733.53;;;0.54;100.00
48364;BME280;34170;54.364;18.582;2023-01-29T00:02:59;100720.41;;;0.51;100.00
48364;BME280;34170;54.364;18.582;2023-01-29T00:05:27;100736.75;;;0.61;100.00
48364;BME280;34170;54.364;18.582;2023-01-29T00:07:55;100737.72;;;0.59;100.00
48364;BME280;34170;54.364;18.582;2023-01-29T00:10:24;100741.94;;;0.44;100.00
48364;BME280;34170;54.364;18.582;2023-01-29T00:12:51;100731.22;;;0.66;100.00
48364;BME280;34170;54.364;18.582;2023-01-29T00:15:19;100734.09;;;0.61;100.00
48364;BME280;34170;54.364;18.582;2023-01-29T00:17:46;100749.28;;;0.57;100.00
48364;BME280;34170;54.364;18.582;2023-01-29T00:20:14;100762.28;;;0.62;100.00
48364;BME280;34170;54.364;18.582;2023-01-29T00:22:42;100746.69;;;0.75;100.00
48364;BME280;34170;54.364;18.582;2023-01-29T00:25:10;100750.28;;;0.74;100.00
48364;BME280;34170;54.364;18.582;2023-01-29T00:27:38;100749.19;;;0.78;100.00
48364;BME280;34170;54.364;18.582;2023-01-29T00:30:06;100746.97;;;0.69;100.00
48364;BME280;34170;54.364;18.582;2023-01-29T00:32:39;100748.84;;;0.67;100.00
48364;BME280;34170;54.364;18.582;2023-01-29T00:35:07;100749.91;;;0.82;100.00
48364;BME280;34170;54.364;18.582;2023-01-29T00:37:35;100759.06;;;0.74;100.00
48364;BME280;34170;54.364;18.582;2023-01-29T00:40:04;100758.13;;;0.94;100.00
48364;BME280;34170;54.364;18.582;2023-01-29T00:42:31;100762.06;;;0.86;100.00
48364;BME280;34170;54.364;18.582;2023-01-29T00:45:17;100744.19;;;0.72;100.00
48364;BME280;34170;54.364;18.582;2023-01-29T00:47:44;100759.13;;;0.73;100.00
48364;BME280;34170;54.364;18.582;2023-01-29T00:50:12;100758.19;;;0.55;100.00
48364;BME280;34170;54.364;18.582;2023-01-29T00:52:40;100767.13;;;0.52;100.00
48364;BME280;34170;54.364;18.582;2023-01-29T00:55:09;100767.06;;;0.54;100.00
48364;BME280;34170;54.364;18.582;2023-01-29T00:57:37;100754.16;;;0.46;100.00
48364;BME280;34170;54.364;18.582;2023-01-29T01:00:07;100774.31;;;0.30;100.00
48364;BME280;34170;54.364;18.582;2023-01-29T01:02:35;100757.94;;;0.22;100.00
48364;BME280;34170;54.364;18.582;2023-01-29T01:05:22;100759.16;;;0.33;100.00
48364;BME280;34170;54.364;18.582;2023-01-29T01:07:51;100767.78;;;0.57;100.00
48364;BME280;34170;54.364;18.582;2023-01-29T01:10:23;100759.03;;;0.36;100.00
48364;BME280;34170;54.364;18.582;2023-01-29T01:12:56;100752.66;;;0.41;100.00
48364;BME280;34170;54.364;18.582;2023-01-29T01:15:27;100763.41;;;0.56;100.00
48364;BME280;34170;54.364;18.582;2023-01-29T01:17:57;100756.97;;;0.43;100.00
48364;BME280;34170;54.364;18.582;2023-01-29T01:20:28;100743.25;;;0.14;100.00
48364;BME280;34170;54.364;18.582;2023-01-29T01:22:56;100752.59;;;0.42;100.00
48364;BME280;34170;54.364;18.582;2023-01-29T01:25:25;100766.00;;;0.58;100.00
48364;BME280;34170;54.364;18.582;2023-01-29T01:27:54;100747.47;;;0.58;100.00
48364;BME280;34170;54.364;18.582;2023-01-29T01:30:23;100766.84;;;0.59;100.00
48364;BME280;34170;54.364;18.582;2023-01-29T01:32:50;100755.13;;;0.64;100.00
48364;BME280;34170;54.364;18.582;2023-01-29T01:35:18;100743.81;;;0.61;100.00
48364;BME280;34170;54.364;18.582;2023-01-29T01:37:45;100757.16;;;0.59;100.00
48364;BME280;34170;54.364;18.582;2023-01-29T01:40:17;100752.47;;;0.64;100.00
48364;BME280;34170;54.364;18.582;2023-01-29T01:42:53;100734.66;;;0.49;100.00
48364;BME280;34170;54.364;18.582;2023-01-29T01:50:31;100720.28;;;0.54;100.00
48364;BME280;34170;54.364;18.582;2023-01-29T01:53:08;100705.88;;;0.41;100.00
48364;BME280;34170;54.364;18.582;2023-01-29T01:55:43;100701.72;;;0.35;100.00
48364;BME280;34170;54.364;18.582;2023-01-29T01:58:16;100709.19;;;0.46;100.00
48364;BME280;34170;54.364;18.582;2023-01-29T02:00:44;100703.25;;;0.41;100.00
48364;BME280;34170;54.364;18.582;2023-01-29T02:03:12;100706.91;;;0.38;100.00
48364;BME280;34170;54.364;18.582;2023-01-29T02:05:59;100689.28;;;0.37;100.00
48364;BME280;34170;54.364;18.582;2023-01-29T02:08:59;100690.16;;;0.38;100.00
48364;BME280;34170;54.364;18.582;2023-01-29T02:11:47;100675.84;;;0.42;100.00
48364;BME280;34170;54.364;18.582;2023-01-29T02:14:15;100680.78;;;0.31;100.00
48364;BME280;34170;54.364;18.582;2023-01-29T02:16:43;100670.06;;;-0.06;100.00
48364;BME280;34170;54.364;18.582;2023-01-29T02:19:47;100660.63;;;0.28;100.00
48364;BME280;34170;54.364;18.582;2023-01-29T02:29:04;100655.28;;;0.49;100.00
48364;BME280;34170;54.364;18.582;2023-01-29T02:37:47;100643.41;;;0.57;100.00
48364;BME280;34170;54.364;18.582;2023-01-29T02:40:33;100646.69;;;0.63;100.00
48364;BME280;34170;54.364;18.582;2023-01-29T02:46:06;100643.94;;;0.64;100.00
48364;BME280;34170;54.364;18.582;2023-01-29T02:51:46;100634.38;;;0.62;100.00
48364;BME280;34170;54.364;18.582;2023-01-29T02:54:22;100644.19;;;0.60;100.00
48364;BME280;34170;54.364;18.582;2023-01-29T02:56:57;100652.38;;;0.72;100.00
48364;BME280;34170;54.364;18.582;2023-01-29T02:59:31;100649.81;;;0.71;100.00
48364;BME280;34170;54.364;18.582;2023-01-29T03:02:06;100647.88;;;0.74;100.00
48364;BME280;34170;54.364;18.582;2023-01-29T03:04:40;100637.72;;;0.65;100.00
48364;BME280;34170;54.364;18.582;2023-01-29T03:07:17;100650.91;;;0.67;100.00
48364;BME280;34170;54.364;18.582;2023-01-29T03:10:29;100658.53;;;0.73;100.00
48364;BME280;34170;54.364;18.582;2023-01-29T03:16:02;100663.69;;;0.76;100.00
48364;BME280;34170;54.364;18.582;2023-01-29T03:18:48;100651.22;;;0.78;100.00
48364;BME280;34170;54.364;18.582;2023-01-29T03:21:28;100651.22;;;0.78;100.00
48364;BME280;34170;54.364;18.582;2023-01-29T03:24:31;100637.34;;;0.73;100.00
48364;BME280;34170;54.364;18.582;2023-01-29T03:27:25;100641.22;;;0.66;100.00
48364;BME280;34170;54.364;18.582;2023-01-29T03:30:15;100625.00;;;0.73;100.00
48364;BME280;34170;54.364;18.582;2023-01-29T03:33:17;100623.34;;;0.52;100.00
48364;BME280;34170;54.364;18.582;2023-01-29T03:35:54;100610.25;;;0.68;100.00
48364;BME280;34170;54.364;18.582;2023-01-29T03:38:22;100622.63;;;0.67;100.00
48364;BME280;34170;54.364;18.582;2023-01-29T03:43:39;100620.16;;;0.82;100.00
48364;BME280;34170;54.364;18.582;2023-01-29T03:46:28;100614.66;;;0.86;100.00
48364;BME280;34170;54.364;18.582;2023-01-29T03:57:37;100596.72;;;0.74;100.00
48364;BME280;34170;54.364;18.582;2023-01-29T04:00:16;100596.66;;;0.75;100.00
48364;BME280;34170;54.364;18.582;2023-01-29T04:06:02;100586.00;;;0.77;100.00
48364;BME280;34170;54.364;18.582;2023-01-29T04:08:56;100574.06;;;0.68;100.00
48364;BME280;34170;54.364;18.582;2023-01-29T04:11:26;100571.34;;;0.70;100.00
48364;BME280;34170;54.364;18.582;2023-01-29T04:13:57;100570.22;;;0.56;100.00
48364;BME280;34170;54.364;18.582;2023-01-29T04:16:32;100558.97;;;0.51;100.00
48364;BME280;34170;54.364;18.582;2023-01-29T04:19:22;100566.47;;;0.61;100.00
48364;BME280;34170;54.364;18.582;2023-01-29T04:21:54;100564.22;;;0.53;100.00
48364;BME280;34170;54.364;18.582;2023-01-29T04:24:25;100579.41;;;0.67;100.00
48364;BME280;34170;54.364;18.582;2023-01-29T04:26:54;100570.00;;;0.79;100.00
48364;BME280;34170;54.364;18.582;2023-01-29T04:33:02;100552.81;;;0.87;100.00
48364;BME280;34170;54.364;18.582;2023-01-29T04:38:41;100557.88;;;0.92;100.00
48364;BME280;34170;54.364;18.582;2023-01-29T04:41:21;100555.59;;;1.02;100.00
48364;BME280;34170;54.364;18.582;2023-01-29T04:46:34;100550.38;;;1.00;100.00
48364;BME280;34170;54.364;18.582;2023-01-29T04:55:54;100554.38;;;1.09;100.00
48364;BME280;34170;54.364;18.582;2023-01-29T04:58:46;100529.91;;;1.04;100.00
48364;BME280;34170;54.364;18.582;2023-01-29T05:01:18;100528.75;;;1.09;100.00
48364;BME280;34170;54.364;18.582;2023-01-29T05:03:49;100520.34;;;1.01;100.00
48364;BME280;34170;54.364;18.582;2023-01-29T05:06:17;100513.72;;;1.10;100.00
48364;BME280;34170;54.364;18.582;2023-01-29T05:08:48;100511.97;;;1.09;100.00
48364;BME280;34170;54.364;18.582;2023-01-29T05:11:17;100504.38;;;1.03;100.00
48364;BME280;34170;54.364;18.582;2023-01-29T05:13:47;100512.88;;;1.09;100.00
48364;BME280;34170;54.364;18.582;2023-01-29T05:16:22;100510.97;;;1.11;100.00
48364;BME280;34170;54.364;18.582;2023-01-29T05:18:52;100505.06;;;1.24;100.00
48364;BME280;34170;54.364;18.582;2023-01-29T05:21:21;100508.00;;;1.18;100.00
48364;BME280;34170;54.364;18.582;2023-01-29T05:26:39;100514.00;;;1.21;100.00
48364;BME280;34170;54.364;18.582;2023-01-29T05:29:27;100511.44;;;1.20;100.00
48364;BME280;34170;54.364;18.582;2023-01-29T05:31:54;100506.13;;;1.20;100.00
48364;BME280;34170;54.364;18.582;2023-01-29T05:34:22;100494.84;;;1.16;100.00
48364;BME280;34170;54.364;18.582;2023-01-29T05:36:49;100494.47;;;1.24;100.00
48364;BME280;34170;54.364;18.582;2023-01-29T05:39:17;100492.44;;;0.94;100.00
48364;BME280;34170;54.364;18.582;2023-01-29T05:41:45;100490.50;;;1.15;100.00
48364;BME280;34170;54.364;18.582;2023-01-29T05:44:12;100490.03;;;1.07;100.00
48364;BME280;34170;54.364;18.582;2023-01-29T05:46:39;100482.06;;;1.24;100.00
48364;BME280;34170;54.364;18.582;2023-01-29T05:49:07;100484.25;;;1.16;100.00
48364;BME280;34170;54.364;18.582;2023-01-29T05:51:34;100489.47;;;1.18;100.00
48364;BME280;34170;54.364;18.582;2023-01-29T05:54:02;100481.59;;;1.16;100.00
48364;BME280;34170;54.364;18.582;2023-01-29T05:56:29;100492.44;;;1.29;100.00
48364;BME280;34170;54.364;18.582;2023-01-29T05:58:57;100493.00;;;1.18;100.00
48364;BME280;34170;54.364;18.582;2023-01-29T06:01:24;100485.28;;;1.13;100.00
48364;BME280;34170;54.364;18.582;2023-01-29T06:03:52;100494.47;;;1.06;100.00
48364;BME280;34170;54.364;18.582;2023-01-29T06:06:19;100497.03;;;1.08;100.00
48364;BME280;34170;54.364;18.582;2023-01-29T06:08:47;100490.94;;;1.23;100.00
48364;BME280;34170;54.364;18.582;2023-01-29T06:11:15;100490.91;;;1.07;100.00
48364;BME280;34170;54.364;18.582;2023-01-29T06:13:44;100489.66;;;1.14;100.00
48364;BME280;34170;54.364;18.582;2023-01-29T06:16:12;100481.22;;;1.24;100.00
48364;BME280;34170;54.364;18.582;2023-01-29T06:18:40;100494.41;;;1.41;100.00
48364;BME280;34170;54.364;18.582;2023-01-29T06:21:10;100498.44;;;1.48;100.00
48364;BME280;34170;54.364;18.582;2023-01-29T06:23:38;100492.19;;;1.49;100.00
48364;BME280;34170;54.364;18.582;2023-01-29T06:26:07;100496.59;;;1.50;100.00
48364;BME280;34170;54.364;18.582;2023-01-29T06:28:35;100484.94;;;1.53;100.00
48364;BME280;34170;54.364;18.582;2023-01-29T06:31:04;100487.28;;;1.59;100.00
48364;BME280;34170;54.364;18.582;2023-01-29T06:33:52;100487.75;;;1.50;100.00
48364;BME280;34170;54.364;18.582;2023-01-29T06:36:19;100486.84;;;1.67;100.00
48364;BME280;34170;54.364;18.582;2023-01-29T06:38:47;100480.69;;;1.66;100.00
48364;BME280;34170;54.364;18.582;2023-01-29T06:41:17;100483.16;;;1.69;100.00
48364;BME280;34170;54.364;18.582;2023-01-29T06:43:45;100486.84;;;1.67;100.00
48364;BME280;34170;54.364;18.582;2023-01-29T06:46:13;100491.13;;;1.69;100.00
48364;BME280;34170;54.364;18.582;2023-01-29T06:48:40;100475.56;;;1.63;100.00
48364;BME280;34170;54.364;18.582;2023-01-29T06:51:09;100487.19;;;1.77;100.00
48364;BME280;34170;54.364;18.582;2023-01-29T06:53:37;100479.44;;;1.74;100.00
48364;BME280;34170;54.364;18.582;2023-01-29T06:56:05;100470.50;;;1.75;100.00
48364;BME280;34170;54.364;18.582;2023-01-29T06:58:36;100467.69;;;1.78;100.00
48364;BME280;34170;54.364;18.582;2023-01-29T07:01:06;100466.44;;;1.85;100.00
48364;BME280;34170;54.364;18.582;2023-01-29T07:03:34;100461.72;;;1.90;100.00
48364;BME280;34170;54.364;18.582;2023-01-29T07:06:02;100471.28;;;1.93;100.00
48364;BME280;34170;54.364;18.582;2023-01-29T07:08:30;100468.41;;;1.97;100.00
48364;BME280;34170;54.364;18.582;2023-01-29T07:10:58;100465.22;;;2.06;100.00
48364;BME280;34170;54.364;18.582;2023-01-29T07:13:26;100462.81;;;2.02;100.00
48364;BME280;34170;54.364;18.582;2023-01-29T07:15:57;100448.19;;;2.10;100.00
48364;BME280;34170;54.364;18.582;2023-01-29T07:18:26;100455.03;;;2.15;100.00
48364;BME280;34170;54.364;18.582;2023-01-29T07:20:55;100452.81;;;2.07;100.00
48364;BME280;34170;54.364;18.582;2023-01-29T07:23:23;100464.97;;;2.11;100.00
48364;BME280;34170;54.364;18.582;2023-01-29T07:25:50;100458.19;;;2.05;100.00
48364;BME280;34170;54.364;18.582;2023-01-29T07:28:18;100452.19;;;2.18;100.00
48364;BME280;34170;54.364;18.582;2023-01-29T07:30:46;100453.63;;;2.23;100.00
48364;BME280;34170;54.364;18.582;2023-01-29T07:33:14;100456.97;;;2.27;100.00
48364;BME280;34170;54.364;18.582;2023-01-29T07:35:41;100450.56;;;2.31;100.00
48364;BME280;34170;54.364;18.582;2023-01-29T07:38:10;100447.03;;;2.31;100.00
48364;BME280;34170;54.364;18.582;2023-01-29T07:40:38;100439.75;;;2.34;100.00
48364;BME280;34170;54.364;18.582;2023-01-29T07:43:07;100436.84;;;2.39;100.00
48364;BME280;34170;54.364;18.582;2023-01-29T07:45:37;100417.94;;;2.29;100.00
48364;BME280;34170;54.364;18.582;2023-01-29T07:48:08;100422.72;;;2.38;100.00
48364;BME280;34170;54.364;18.582;2023-01-29T07:50:37;100420.22;;;2.35;100.00
48364;BME280;34170;54.364;18.582;2023-01-29T07:53:04;100421.97;;;2.36;100.00
48364;BME280;34170;54.364;18.582;2023-01-29T07:55:32;100414.16;;;2.33;100.00
48364;BME280;34170;54.364;18.582;2023-01-29T07:58:01;100431.03;;;2.32;100.00
48364;BME280;34170;54.364;18.582;2023-01-29T08:00:30;100431.53;;;2.39;100.00
48364;BME280;34170;54.364;18.582;2023-01-29T08:03:03;100433.56;;;2.50;100.00
48364;BME280;34170;54.364;18.582;2023-01-29T08:05:31;100429.84;;;2.52;100.00
48364;BME280;34170;54.364;18.582;2023-01-29T08:07:59;100429.00;;;2.52;100.00
48364;BME280;34170;54.364;18.582;2023-01-29T08:10:34;100421.22;;;2.48;100.00
48364;BME280;34170;54.364;18.582;2023-01-29T08:13:04;100423.53;;;2.55;100.00
48364;BME280;34170;54.364;18.582;2023-01-29T08:15:32;100415.56;;;2.55;100.00
48364;BME280;34170;54.364;18.582;2023-01-29T08:18:00;100422.00;;;2.51;100.00
48364;BME280;34170;54.364;18.582;2023-01-29T08:20:28;100409.19;;;2.57;100.00
48364;BME280;34170;54.364;18.582;2023-01-29T08:23:14;100410.66;;;2.63;100.00
48364;BME280;34170;54.364;18.582;2023-01-29T08:25:42;100417.78;;;2.46;100.00
48364;BME280;34170;54.364;18.582;2023-01-29T08:28:10;100432.16;;;2.58;100.00
48364;BME280;34170;54.364;18.582;2023-01-29T08:30:38;100412.53;;;2.61;100.00
48364;BME280;34170;54.364;18.582;2023-01-29T08:33:06;100405.69;;;2.57;100.00
48364;BME280;34170;54.364;18.582;2023-01-29T08:35:33;100404.22;;;2.81;100.00
48364;BME280;34170;54.364;18.582;2023-01-29T08:38:02;100410.31;;;2.98;100.00
48364;BME280;34170;54.364;18.582;2023-01-29T08:40:32;100400.09;;;3.20;100.00
48364;BME280;34170;54.364;18.582;2023-01-29T08:43:02;100415.25;;;3.47;100.00
48364;BME280;34170;54.364;18.582;2023-01-29T08:45:33;100400.97;;;3.62;100.00
48364;BME280;34170;54.364;18.582;2023-01-29T08:48:01;100408.97;;;3.48;100.00
48364;BME280;34170;54.364;18.582;2023-01-29T08:50:29;100408.97;;;3.48;100.00
48364;BME280;34170;54.364;18.582;2023-01-29T08:52:58;100405.47;;;3.48;100.00
48364;BME280;34170;54.364;18.582;2023-01-29T08:55:27;100398.75;;;3.28;100.00
48364;BME280;34170;54.364;18.582;2023-01-29T08:57:55;100402.53;;;3.23;100.00
48364;BME280;34170;54.364;18.582;2023-01-29T09:00:25;100399.50;;;3.15;100.00
48364;BME280;34170;54.364;18.582;2023-01-29T09:02:52;100395.34;;;3.26;100.00
48364;BME280;34170;54.364;18.582;2023-01-29T09:05:20;100400.53;;;3.41;100.00
48364;BME280;34170;54.364;18.582;2023-01-29T09:07:47;100377.75;;;3.23;100.00
48364;BME280;34170;54.364;18.582;2023-01-29T09:10:15;100381.47;;;3.20;100.00
48364;BME280;34170;54.364;18.582;2023-01-29T09:12:43;100383.16;;;3.21;100.00
48364;BME280;34170;54.364;18.582;2023-01-29T09:15:10;100373.03;;;2.99;100.00
48364;BME280;34170;54.364;18.582;2023-01-29T09:17:38;100384.41;;;3.30;100.00
48364;BME280;34170;54.364;18.582;2023-01-29T09:20:06;100377.84;;;3.36;100.00
48364;BME280;34170;54.364;18.582;2023-01-29T09:22:34;100386.09;;;3.46;100.00
48364;BME280;34170;54.364;18.582;2023-01-29T09:25:01;100384.28;;;3.46;100.00
48364;BME280;34170;54.364;18.582;2023-01-29T09:27:29;100387.69;;;3.48;100.00
48364;BME280;34170;54.364;18.582;2023-01-29T09:29:56;100381.91;;;3.41;100.00
48364;BME280;34170;54.364;18.582;2023-01-29T09:32:24;100388.47;;;3.50;100.00
48364;BME280;34170;54.364;18.582;2023-01-29T09:35:11;100380.13;;;3.42;100.00
48364;BME280;34170;54.364;18.582;2023-01-29T09:37:39;100379.16;;;3.43;100.00
48364;BME280;34170;54.364;18.582;2023-01-29T09:40:09;100370.63;;;3.23;100.00
48364;BME280;34170;54.364;18.582;2023-01-29T09:42:54;100375.19;;;3.36;100.00
48364;BME280;34170;54.364;18.582;2023-01-29T09:45:24;100375.41;;;3.33;100.00
48364;BME280;34170;54.364;18.582;2023-01-29T09:47:55;100370.28;;;3.30;100.00
48364;BME280;34170;54.364;18.582;2023-01-29T09:50:43;100366.47;;;3.19;100.00
48364;BME280;34170;54.364;18.582;2023-01-29T09:53:20;100366.44;;;3.34;100.00
48364;BME280;34170;54.364;18.582;2023-01-29T09:56:05;100366.09;;;3.26;100.00
48364;BME280;34170;54.364;18.582;2023-01-29T09:58:38;100355.56;;;3.10;100.00
48364;BME280;34170;54.364;18.582;2023-01-29T10:04:16;100355.66;;;3.08;100.00
48364;BME280;34170;54.364;18.582;2023-01-29T10:12:07;100344.47;;;3.17;100.00
48364;BME280;34170;54.364;18.582;2023-01-29T10:15:33;100356.59;;;3.21;100.00
48364;BME280;34170;54.364;18.582;2023-01-29T10:23:39;100347.22;;;3.16;100.00
48364;BME280;34170;54.364;18.582;2023-01-29T10:26:15;100343.03;;;3.12;100.00
48364;BME280;34170;54.364;18.582;2023-01-29T10:28:49;100331.84;;;3.07;100.00
48364;BME280;34170;54.364;18.582;2023-01-29T10:31:25;100323.19;;;3.17;100.00
48364;BME280;34170;54.364;18.582;2023-01-29T10:33:59;100324.09;;;3.31;100.00
48364;BME280;34170;54.364;18.582;2023-01-29T10:39:20;100315.00;;;3.35;100.00
48364;BME280;34170;54.364;18.582;2023-01-29T10:42:07;100310.59;;;3.48;100.00
48364;BME280;34170;54.364;18.582;2023-01-29T10:47:59;100318.25;;;3.67;100.00
48364;BME280;34170;54.364;18.582;2023-01-29T10:50:52;100308.81;;;3.76;100.00
48364;BME280;34170;54.364;18.582;2023-01-29T10:53:37;100305.22;;;3.90;100.00
48364;BME280;34170;54.364;18.582;2023-01-29T11:02:00;100288.13;;;4.07;100.00
48364;BME280;34170;54.364;18.582;2023-01-29T11:04:30;100284.09;;;4.27;100.00
48364;BME280;34170;54.364;18.582;2023-01-29T11:06:58;100279.59;;;4.01;100.00
48364;BME280;34170;54.364;18.582;2023-01-29T11:12:02;100259.50;;;4.10;100.00
48364;BME280;34170;54.364;18.582;2023-01-29T11:17:14;100244.06;;;4.28;100.00
48364;BME280;34170;54.364;18.582;2023-01-29T11:19:45;100249.69;;;4.24;100.00
48364;BME280;34170;54.364;18.582;2023-01-29T11:22:14;100249.69;;;4.24;100.00
48364;BME280;34170;54.364;18.582;2023-01-29T11:24:42;100238.53;;;4.31;100.00
48364;BME280;34170;54.364;18.582;2023-01-29T11:27:25;100233.53;;;4.27;100.00
48364;BME280;34170;54.364;18.582;2023-01-29T11:29:52;100233.31;;;4.17;100.00
48364;BME280;34170;54.364;18.582;2023-01-29T11:35:16;100239.81;;;4.38;100.00
48364;BME280;34170;54.364;18.582;2023-01-29T11:37:46;100243.09;;;4.04;100.00
48364;BME280;34170;54.364;18.582;2023-01-29T11:42:50;100232.13;;;3.95;100.00
48364;BME280;34170;54.364;18.582;2023-01-29T11:45:26;100242.16;;;4.05;100.00
48364;BME280;34170;54.364;18.582;2023-01-29T11:47:56;100242.34;;;4.27;100.00
48364;BME280;34170;54.364;18.582;2023-01-29T11:50:32;100240.44;;;4.04;100.00
48364;BME280;34170;54.364;18.582;2023-01-29T11:53:00;100236.09;;;4.15;100.00
48364;BME280;34170;54.364;18.582;2023-01-29T11:55:31;100244.47;;;3.96;100.00
48364;BME280;34170;54.364;18.582;2023-01-29T11:58:20;100234.97;;;3.79;100.00
48364;BME280;34170;54.364;18.582;2023-01-29T12:00:52;100244.53;;;3.82;100.00
48364;BME280;34170;54.364;18.582;2023-01-29T12:05:59;100218.72;;;4.10;100.00
48364;BME280;34170;54.364;18.582;2023-01-29T12:08:35;100226.28;;;4.16;100.00
48364;BME280;34170;54.364;18.582;2023-01-29T12:13:36;100228.19;;;4.14;100.00
48364;BME280;34170;54.364;18.582;2023-01-29T12:16:19;100213.91;;;3.89;100.00
48364;BME280;34170;54.364;18.582;2023-01-29T12:19:10;100208.38;;;3.92;100.00
48364;BME280;34170;54.364;18.582;2023-01-29T12:22:19;100191.22;;;3.71;100.00
48364;BME280;34170;54.364;18.582;2023-01-29T12:24:52;100184.72;;;3.75;100.00
48364;BME280;34170;54.364;18.582;2023-01-29T12:27:30;100197.41;;;3.84;100.00
48364;BME280;34170;54.364;18.582;2023-01-29T12:30:22;100170.34;;;3.65;100.00
48364;BME280;34170;54.364;18.582;2023-01-29T12:35:41;100180.66;;;3.56;100.00
48364;BME280;34170;54.364;18.582;2023-01-29T12:38:21;100172.47;;;3.59;100.00
48364;BME280;34170;54.364;18.582;2023-01-29T12:40:52;100164.25;;;3.37;100.00
48364;BME280;34170;54.364;18.582;2023-01-29T12:43:42;100155.53;;;3.48;100.00
48364;BME280;34170;54.364;18.582;2023-01-29T12:46:30;100135.31;;;3.45;100.00
48364;BME280;34170;54.364;18.582;2023-01-29T12:49:02;100133.09;;;3.65;100.00
48364;BME280;34170;54.364;18.582;2023-01-29T12:51:41;100126.66;;;3.69;100.00
48364;BME280;34170;54.364;18.582;2023-01-29T12:54:20;100122.81;;;3.73;100.00
48364;BME280;34170;54.364;18.582;2023-01-29T12:56:52;100126.41;;;3.72;100.00
48364;BME280;34170;54.364;18.582;2023-01-29T12:59:33;100124.41;;;3.75;100.00
48364;BME280;34170;54.364;18.582;2023-01-29T13:02:17;100119.84;;;3.77;100.00
48364;BME280;34170;54.364;18.582;2023-01-29T13:04:56;100114.09;;;3.71;100.00
48364;BME280;34170;54.364;18.582;2023-01-29T13:07:30;100110.97;;;3.51;100.00
48364;BME280;34170;54.364;18.582;2023-01-29T13:10:14;100104.50;;;3.55;100.00
48364;BME280;34170;54.364;18.582;2023-01-29T13:13:14;100096.22;;;3.73;100.00
48364;BME280;34170;54.364;18.582;2023-01-29T13:15:46;100114.50;;;3.65;100.00
48364;BME280;34170;54.364;18.582;2023-01-29T13:18:29;100102.28;;;3.49;100.00
48364;BME280;34170;54.364;18.582;2023-01-29T13:20:59;100110.69;;;3.69;100.00
48364;BME280;34170;54.364;18.582;2023-01-29T13:23:33;100101.97;;;3.79;100.00
48364;BME280;34170;54.364;18.582;2023-01-29T13:26:01;100110.88;;;3.66;100.00
48364;BME280;34170;54.364;18.582;2023-01-29T13:28:29;100104.09;;;3.74;100.00
48364;BME280;34170;54.364;18.582;2023-01-29T13:33:40;100102.38;;;3.60;100.00
48364;BME280;34170;54.364;18.582;2023-01-29T13:36:14;100111.09;;;3.62;100.00
48364;BME280;34170;54.364;18.582;2023-01-29T13:38:43;100103.75;;;3.53;100.00
48364;BME280;34170;54.364;18.582;2023-01-29T13:41:12;100105.31;;;3.43;100.00
48364;BME280;34170;54.364;18.582;2023-01-29T13:43:42;100095.56;;;3.43;100.00
48364;BME280;34170;54.364;18.582;2023-01-29T13:46:17;100086.97;;;3.53;100.00
48364;BME280;34170;54.364;18.582;2023-01-29T13:48:49;100092.25;;;3.40;100.00
48364;BME280;34170;54.364;18.582;2023-01-29T13:51:21;100089.16;;;3.46;100.00
48364;BME280;34170;54.364;18.582;2023-01-29T13:54:00;100093.13;;;3.53;100.00
48364;BME280;34170;54.364;18.582;2023-01-29T13:59:04;100097.78;;;3.62;100.00
48364;BME280;34170;54.364;18.582;2023-01-29T14:06:56;100110.00;;;3.39;100.00
48364;BME280;34170;54.364;18.582;2023-01-29T14:10:08;100114.75;;;3.21;100.00
48364;BME280;34170;54.364;18.582;2023-01-29T14:12:41;100108.69;;;3.19;100.00
48364;BME280;34170;54.364;18.582;2023-01-29T14:15:20;100113.16;;;3.19;100.00
48364;BME280;34170;54.364;18.582;2023-01-29T14:17:57;100115.06;;;3.17;100.00
48364;BME280;34170;54.364;18.582;2023-01-29T14:23:26;100125.78;;;3.15;100.00
48364;BME280;34170;54.364;18.582;2023-01-29T14:25:55;100118.38;;;3.20;100.00
48364;BME280;34170;54.364;18.582;2023-01-29T14:28:28;100121.34;;;3.29;100.00
48364;BME280;34170;54.364;18.582;2023-01-29T14:30:56;100104.38;;;3.04;100.00
48364;BME280;34170;54.364;18.582;2023-01-29T14:33:35;100116.94;;;3.15;100.00
48364;BME280;34170;54.364;18.582;2023-01-29T14:36:07;100104.34;;;3.18;100.00
48364;BME280;34170;54.364;18.582;2023-01-29T14:38:37;100105.94;;;3.21;100.00
48364;BME280;34170;54.364;18.582;2023-01-29T14:41:27;100097.75;;;3.24;100.00
48364;BME280;34170;54.364;18.582;2023-01-29T14:47:00;100097.38;;;3.03;100.00
48364;BME280;34170;54.364;18.582;2023-01-29T14:49:47;100096.75;;;3.12;100.00
48364;BME280;34170;54.364;18.582;2023-01-29T14:52:16;100095.19;;;3.10;100.00
48364;BME280;34170;54.364;18.582;2023-01-29T14:54:46;100086.44;;;3.08;100.00
48364;BME280;34170;54.364;18.582;2023-01-29T14:57:15;100091.44;;;3.12;100.00
48364;BME280;34170;54.364;18.582;2023-01-29T15:02:26;100079.41;;;2.94;100.00
48364;BME280;34170;54.364;18.582;2023-01-29T15:05:01;100077.81;;;3.04;100.00
48364;BME280;34170;54.364;18.582;2023-01-29T15:07:38;100076.13;;;3.03;100.00
48364;BME280;34170;54.364;18.582;2023-01-29T15:10:22;100073.16;;;3.08;100.00
48364;BME280;34170;54.364;18.582;2023-01-29T15:12:59;100063.38;;;2.95;100.00
48364;BME280;34170;54.364;18.582;2023-01-29T15:15:43;100055.16;;;2.98;100.00